sensor_id;sensor_type;location;lat;lon;timestamp;P1;durP1;ratioP1;P2;durP2;ratioP2
63193;SDS011;49289;51.670;5.624;2023-11-21T00:00:54;47.50;;;21.10;;
63193;SDS011;49289;51.670;5.624;2023-11-21T00:02:41;49.20;;;21.40;;
63193;SDS011;49289;51.670;5.624;2023-11-21T00:04:28;51.40;;;21.20;;
63193;SDS011;49289;51.670;5.624;2023-11-21T00:06:15;48.30;;;22.70;;
63193;SDS011;49289;51.670;5.624;2023-11-21T00:08:02;45.00;;;21.10;;
63193;SDS011;49289;51.670;5.624;2023-11-21T00:09:50;37.30;;;19.70;;
63193;SDS011;49289;51.670;5.624;2023-11-21T00:11:37;43.70;;;20.30;;
63193;SDS011;49289;51.670;5.624;2023-11-21T00:13:24;62.60;;;23.20;;
63193;SDS011;49289;51.670;5.624;2023-11-21T00:15:11;53.50;;;21.10;;
63193;SDS011;49289;51.670;5.624;2023-11-21T00:16:59;43.90;;;19.50;;
63193;SDS011;49289;51.670;5.624;2023-11-21T00:18:46;47.20;;;19.70;;
63193;SDS011;49289;51.670;5.624;2023-11-21T00:20:33;72.20;;;20.80;;
63193;SDS011;49289;51.670;5.624;2023-11-21T00:22:20;54.30;;;20.50;;
63193;SDS011;49289;51.670;5.624;2023-11-21T00:24:07;51.40;;;18.40;;
63193;SDS011;49289;51.670;5.624;2023-11-21T00:25:54;52.00;;;18.80;;
63193;SDS011;49289;51.670;5.624;2023-11-21T00:27:41;44.00;;;18.80;;
63193;SDS011;49289;51.670;5.624;2023-11-21T00:29:28;43.50;;;18.30;;
63193;SDS011;49289;51.670;5.624;2023-11-21T00:31:15;55.40;;;19.10;;
63193;SDS011;49289;51.670;5.624;2023-11-21T00:33:02;81.10;;;20.20;;
63193;SDS011;49289;51.670;5.624;2023-11-21T00:34:49;41.30;;;17.60;;
63193;SDS011;49289;51.670;5.624;2023-11-21T00:36:36;34.70;;;17.50;;
63193;SDS011;49289;51.670;5.624;2023-11-21T00:38:23;50.70;;;18.20;;
63193;SDS011;49289;51.670;5.624;2023-11-21T00:40:11;54.50;;;19.80;;
63193;SDS011;49289;51.670;5.624;2023-11-21T00:41:58;48.60;;;18.90;;
63193;SDS011;49289;51.670;5.624;2023-11-21T00:43:43;47.70;;;18.90;;
63193;SDS011;49289;51.670;5.624;2023-11-21T00:45:30;42.10;;;18.10;;
63193;SDS011;49289;51.670;5.624;2023-11-21T00:47:17;39.90;;;16.90;;
63193;SDS011;49289;51.670;5.624;2023-11-21T00:49:04;40.50;;;17.50;;
63193;SDS011;49289;51.670;5.624;2023-11-21T00:50:51;39.20;;;17.70;;
63193;SDS011;49289;51.670;5.624;2023-11-21T00:52:38;47.20;;;18.80;;
63193;SDS011;49289;51.670;5.624;2023-11-21T00:54:26;48.40;;;18.80;;
63193;SDS011;49289;51.670;5.624;2023-11-21T00:56:13;49.50;;;18.40;;
63193;SDS011;49289;51.670;5.624;2023-11-21T00:58:00;49.20;;;19.40;;
63193;SDS011;49289;51.670;5.624;2023-11-21T00:59:47;44.80;;;18.40;;
63193;SDS011;49289;51.670;5.624;2023-11-21T01:01:34;39.30;;;17.90;;
63193;SDS011;49289;51.670;5.624;2023-11-21T01:03:21;37.60;;;17.00;;
63193;SDS011;49289;51.670;5.624;2023-11-21T01:05:08;41.60;;;17.70;;
63193;SDS011;49289;51.670;5.624;2023-11-21T01:06:55;40.10;;;17.30;;
63193;SDS011;49289;51.670;5.624;2023-11-21T01:08:43;43.80;;;18.10;;
63193;SDS011;49289;51.670;5.624;2023-11-21T01:10:29;44.00;;;18.60;;
63193;SDS011;49289;51.670;5.624;2023-11-21T01:12:16;43.30;;;18.30;;
63193;SDS011;49289;51.670;5.624;2023-11-21T01:14:03;39.50;;;17.40;;
63193;SDS011;49289;51.670;5.624;2023-11-21T01:15:50;38.90;;;17.80;;
63193;SDS011;49289;51.670;5.624;2023-11-21T01:17:37;40.80;;;17.70;;
63193;SDS011;49289;51.670;5.624;2023-11-21T01:19:24;48.40;;;20.10;;
63193;SDS011;49289;51.670;5.624;2023-11-21T01:21:12;49.90;;;20.50;;
63193;SDS011;49289;51.670;5.624;2023-11-21T01:22:59;48.30;;;19.50;;
63193;SDS011;49289;51.670;5.624;2023-11-21T01:24:46;43.90;;;18.80;;
63193;SDS011;49289;51.670;5.624;2023-11-21T01:26:33;40.90;;;17.50;;
63193;SDS011;49289;51.670;5.624;2023-11-21T01:28:20;40.40;;;18.70;;
63193;SDS011;49289;51.670;5.624;2023-11-21T01:30:07;34.70;;;16.70;;
63193;SDS011;49289;51.670;5.624;2023-11-21T01:31:54;38.20;;;17.40;;
63193;SDS011;49289;51.670;5.624;2023-11-21T01:33:41;30.50;;;17.00;;
63193;SDS011;49289;51.670;5.624;2023-11-21T01:35:29;40.10;;;17.70;;
63193;SDS011;49289;51.670;5.624;2023-11-21T01:37:15;32.20;;;17.00;;
63193;SDS011;49289;51.670;5.624;2023-11-21T01:39:02;30.30;;;16.10;;
63193;SDS011;49289;51.670;5.624;2023-11-21T01:40:49;36.80;;;18.50;;
63193;SDS011;49289;51.670;5.624;2023-11-21T01:42:36;30.70;;;17.00;;
63193;SDS011;49289;51.670;5.624;2023-11-21T01:44:23;33.10;;;16.80;;
63193;SDS011;49289;51.670;5.624;2023-11-21T01:46:11;39.00;;;17.90;;
63193;SDS011;49289;51.670;5.624;2023-11-21T01:47:58;43.10;;;19.40;;
63193;SDS011;49289;51.670;5.624;2023-11-21T01:49:45;41.20;;;19.40;;
63193;SDS011;49289;51.670;5.624;2023-11-21T01:51:31;45.00;;;20.60;;
63193;SDS011;49289;51.670;5.624;2023-11-21T01:53:18;43.60;;;21.10;;
63193;SDS011;49289;51.670;5.624;2023-11-21T01:55:05;48.20;;;21.30;;
63193;SDS011;49289;51.670;5.624;2023-11-21T01:56:53;48.30;;;21.60;;
63193;SDS011;49289;51.670;5.624;2023-11-21T01:58:40;53.20;;;23.30;;
63193;SDS011;49289;51.670;5.624;2023-11-21T02:00:27;57.40;;;23.10;;
63193;SDS011;49289;51.670;5.624;2023-11-21T02:02:14;52.20;;;23.80;;
63193;SDS011;49289;51.670;5.624;2023-11-21T02:04:01;81.20;;;26.00;;
63193;SDS011;49289;51.670;5.624;2023-11-21T02:05:48;73.30;;;24.50;;
63193;SDS011;49289;51.670;5.624;2023-11-21T02:07:36;66.90;;;24.90;;
63193;SDS011;49289;51.670;5.624;2023-11-21T02:09:23;77.40;;;26.20;;
63193;SDS011;49289;51.670;5.624;2023-11-21T02:11:10;134.50;;;28.20;;
63193;SDS011;49289;51.670;5.624;2023-11-21T02:12:57;112.70;;;27.70;;
63193;SDS011;49289;51.670;5.624;2023-11-21T02:14:44;129.70;;;28.90;;
63193;SDS011;49289;51.670;5.624;2023-11-21T02:16:31;132.70;;;28.90;;
63193;SDS011;49289;51.670;5.624;2023-11-21T02:18:18;112.30;;;27.40;;
63193;SDS011;49289;51.670;5.624;2023-11-21T02:20:05;274.50;;;33.80;;
63193;SDS011;49289;51.670;5.624;2023-11-21T02:21:53;227.80;;;33.90;;
63193;SDS011;49289;51.670;5.624;2023-11-21T02:23:40;223.00;;;37.00;;
63193;SDS011;49289;51.670;5.624;2023-11-21T02:25:27;217.20;;;33.60;;
63193;SDS011;49289;51.670;5.624;2023-11-21T02:27:14;206.90;;;32.90;;
63193;SDS011;49289;51.670;5.624;2023-11-21T02:29:01;218.90;;;34.60;;
63193;SDS011;49289;51.670;5.624;2023-11-21T02:30:48;193.40;;;33.20;;
63193;SDS011;49289;51.670;5.624;2023-11-21T02:32:35;172.40;;;30.00;;
63193;SDS011;49289;51.670;5.624;2023-11-21T02:34:22;242.00;;;32.50;;
63193;SDS011;49289;51.670;5.624;2023-11-21T02:36:10;250.90;;;33.40;;
63193;SDS011;49289;51.670;5.624;2023-11-21T02:37:57;221.70;;;31.70;;
63193;SDS011;49289;51.670;5.624;2023-11-21T02:39:44;212.60;;;33.10;;
63193;SDS011;49289;51.670;5.624;2023-11-21T02:41:31;287.40;;;32.00;;
63193;SDS011;49289;51.670;5.624;2023-11-21T02:43:19;179.30;;;30.70;;
63193;SDS011;49289;51.670;5.624;2023-11-21T02:45:06;305.30;;;35.00;;
63193;SDS011;49289;51.670;5.624;2023-11-21T02:46:53;208.00;;;30.30;;
63193;SDS011;49289;51.670;5.624;2023-11-21T02:48:40;188.00;;;30.20;;
63193;SDS011;49289;51.670;5.624;2023-11-21T02:50:27;192.90;;;30.90;;
63193;SDS011;49289;51.670;5.624;2023-11-21T02:52:14;147.50;;;29.10;;
63193;SDS011;49289;51.670;5.624;2023-11-21T02:54:01;178.40;;;27.70;;
63193;SDS011;49289;51.670;5.624;2023-11-21T02:55:49;152.10;;;25.70;;
63193;SDS011;49289;51.670;5.624;2023-11-21T02:57:36;166.10;;;29.30;;
63193;SDS011;49289;51.670;5.624;2023-11-21T02:59:23;150.60;;;29.00;;
63193;SDS011;49289;51.670;5.624;2023-11-21T03:01:10;140.70;;;29.40;;
63193;SDS011;49289;51.670;5.624;2023-11-21T03:02:57;197.70;;;38.80;;
63193;SDS011;49289;51.670;5.624;2023-11-21T03:04:44;175.20;;;36.40;;
63193;SDS011;49289;51.670;5.624;2023-11-21T03:06:31;136.30;;;30.80;;
63193;SDS011;49289;51.670;5.624;2023-11-21T03:08:18;135.60;;;30.20;;
63193;SDS011;49289;51.670;5.624;2023-11-21T03:10:05;108.40;;;26.40;;
63193;SDS011;49289;51.670;5.624;2023-11-21T03:11:53;94.40;;;27.30;;
63193;SDS011;49289;51.670;5.624;2023-11-21T03:13:40;104.60;;;26.00;;
63193;SDS011;49289;51.670;5.624;2023-11-21T03:15:27;95.40;;;24.70;;
63193;SDS011;49289;51.670;5.624;2023-11-21T03:17:14;94.70;;;26.70;;
63193;SDS011;49289;51.670;5.624;2023-11-21T03:19:01;93.60;;;26.20;;
63193;SDS011;49289;51.670;5.624;2023-11-21T03:20:48;82.10;;;25.80;;
63193;SDS011;49289;51.670;5.624;2023-11-21T03:22:35;77.40;;;25.60;;
63193;SDS011;49289;51.670;5.624;2023-11-21T03:24:22;86.20;;;26.10;;
63193;SDS011;49289;51.670;5.624;2023-11-21T03:26:11;82.80;;;25.10;;
63193;SDS011;49289;51.670;5.624;2023-11-21T03:27:57;58.00;;;23.10;;
63193;SDS011;49289;51.670;5.624;2023-11-21T03:29:44;81.90;;;24.60;;
63193;SDS011;49289;51.670;5.624;2023-11-21T03:31:31;69.00;;;24.00;;
63193;SDS011;49289;51.670;5.624;2023-11-21T03:33:18;84.20;;;23.90;;
63193;SDS011;49289;51.670;5.624;2023-11-21T03:35:05;107.50;;;25.10;;
63193;SDS011;49289;51.670;5.624;2023-11-21T03:36:52;125.30;;;26.40;;
63193;SDS011;49289;51.670;5.624;2023-11-21T03:38:39;82.50;;;26.30;;
63193;SDS011;49289;51.670;5.624;2023-11-21T03:40:26;99.60;;;25.20;;
63193;SDS011;49289;51.670;5.624;2023-11-21T03:42:13;75.10;;;24.70;;
63193;SDS011;49289;51.670;5.624;2023-11-21T03:44:00;81.20;;;26.80;;
63193;SDS011;49289;51.670;5.624;2023-11-21T03:45:47;76.60;;;25.00;;
63193;SDS011;49289;51.670;5.624;2023-11-21T03:47:34;66.30;;;24.10;;
63193;SDS011;49289;51.670;5.624;2023-11-21T03:49:21;77.80;;;26.50;;
63193;SDS011;49289;51.670;5.624;2023-11-21T03:51:09;81.50;;;24.80;;
63193;SDS011;49289;51.670;5.624;2023-11-21T03:52:56;73.20;;;24.90;;
63193;SDS011;49289;51.670;5.624;2023-11-21T03:54:43;67.70;;;25.50;;
63193;SDS011;49289;51.670;5.624;2023-11-21T03:56:30;79.60;;;25.50;;
63193;SDS011;49289;51.670;5.624;2023-11-21T03:58:17;80.20;;;24.50;;
63193;SDS011;49289;51.670;5.624;2023-11-21T04:00:04;75.80;;;23.00;;
63193;SDS011;49289;51.670;5.624;2023-11-21T04:01:52;79.60;;;23.40;;
63193;SDS011;49289;51.670;5.624;2023-11-21T04:03:40;79.20;;;24.60;;
63193;SDS011;49289;51.670;5.624;2023-11-21T04:05:27;92.70;;;24.60;;
63193;SDS011;49289;51.670;5.624;2023-11-21T04:07:14;94.90;;;24.90;;
63193;SDS011;49289;51.670;5.624;2023-11-21T04:09:01;104.90;;;26.70;;
63193;SDS011;49289;51.670;5.624;2023-11-21T04:10:48;88.00;;;24.70;;
63193;SDS011;49289;51.670;5.624;2023-11-21T04:12:35;85.30;;;25.80;;
63193;SDS011;49289;51.670;5.624;2023-11-21T04:14:22;121.00;;;26.40;;
63193;SDS011;49289;51.670;5.624;2023-11-21T04:16:10;115.40;;;24.50;;
63193;SDS011;49289;51.670;5.624;2023-11-21T04:17:57;130.10;;;27.20;;
63193;SDS011;49289;51.670;5.624;2023-11-21T04:19:44;115.00;;;26.40;;
63193;SDS011;49289;51.670;5.624;2023-11-21T04:21:31;142.80;;;26.70;;
63193;SDS011;49289;51.670;5.624;2023-11-21T04:23:18;126.00;;;26.60;;
63193;SDS011;49289;51.670;5.624;2023-11-21T04:25:05;155.90;;;28.80;;
63193;SDS011;49289;51.670;5.624;2023-11-21T04:26:53;124.90;;;26.40;;
63193;SDS011;49289;51.670;5.624;2023-11-21T04:28:40;138.70;;;26.40;;
63193;SDS011;49289;51.670;5.624;2023-11-21T04:30:27;125.50;;;23.30;;
63193;SDS011;49289;51.670;5.624;2023-11-21T04:32:14;188.00;;;27.10;;
63193;SDS011;49289;51.670;5.624;2023-11-21T04:34:01;142.10;;;27.20;;
63193;SDS011;49289;51.670;5.624;2023-11-21T04:35:48;117.50;;;24.80;;
63193;SDS011;49289;51.670;5.624;2023-11-21T04:37:35;93.50;;;26.70;;
63193;SDS011;49289;51.670;5.624;2023-11-21T04:39:22;166.50;;;25.90;;
63193;SDS011;49289;51.670;5.624;2023-11-21T04:41:09;119.90;;;25.70;;
63193;SDS011;49289;51.670;5.624;2023-11-21T04:42:56;114.10;;;25.30;;
63193;SDS011;49289;51.670;5.624;2023-11-21T04:44:43;129.20;;;26.30;;
63193;SDS011;49289;51.670;5.624;2023-11-21T04:46:30;103.50;;;27.00;;
63193;SDS011;49289;51.670;5.624;2023-11-21T04:48:17;131.90;;;26.20;;
63193;SDS011;49289;51.670;5.624;2023-11-21T04:50:05;125.20;;;22.30;;
63193;SDS011;49289;51.670;5.624;2023-11-21T04:51:52;109.00;;;25.00;;
63193;SDS011;49289;51.670;5.624;2023-11-21T04:53:39;129.90;;;24.70;;
63193;SDS011;49289;51.670;5.624;2023-11-21T04:55:26;79.60;;;24.00;;
63193;SDS011;49289;51.670;5.624;2023-11-21T04:57:13;91.40;;;23.20;;
63193;SDS011;49289;51.670;5.624;2023-11-21T04:59:00;82.20;;;24.50;;
63193;SDS011;49289;51.670;5.624;2023-11-21T05:00:47;92.00;;;24.70;;
63193;SDS011;49289;51.670;5.624;2023-11-21T05:02:34;65.10;;;23.70;;
63193;SDS011;49289;51.670;5.624;2023-11-21T05:04:21;94.40;;;23.40;;
63193;SDS011;49289;51.670;5.624;2023-11-21T05:06:09;93.50;;;24.40;;
63193;SDS011;49289;51.670;5.624;2023-11-21T05:07:55;86.70;;;25.70;;
63193;SDS011;49289;51.670;5.624;2023-11-21T05:09:42;47.60;;;22.20;;
63193;SDS011;49289;51.670;5.624;2023-11-21T05:11:29;59.80;;;23.40;;
63193;SDS011;49289;51.670;5.624;2023-11-21T05:13:16;72.10;;;21.90;;
63193;SDS011;49289;51.670;5.624;2023-11-21T05:15:03;75.40;;;23.10;;
63193;SDS011;49289;51.670;5.624;2023-11-21T05:16:51;71.20;;;22.50;;
63193;SDS011;49289;51.670;5.624;2023-11-21T05:18:38;41.60;;;21.90;;
63193;SDS011;49289;51.670;5.624;2023-11-21T05:20:25;61.70;;;22.80;;
63193;SDS011;49289;51.670;5.624;2023-11-21T05:22:12;54.80;;;22.50;;
63193;SDS011;49289;51.670;5.624;2023-11-21T05:23:59;55.40;;;22.90;;
63193;SDS011;49289;51.670;5.624;2023-11-21T05:25:46;47.00;;;22.00;;
63193;SDS011;49289;51.670;5.624;2023-11-21T05:27:33;47.80;;;22.00;;
63193;SDS011;49289;51.670;5.624;2023-11-21T05:29:20;46.80;;;22.40;;
63193;SDS011;49289;51.670;5.624;2023-11-21T05:31:07;40.40;;;22.40;;
63193;SDS011;49289;51.670;5.624;2023-11-21T05:32:54;39.40;;;21.40;;
63193;SDS011;49289;51.670;5.624;2023-11-21T05:34:41;38.70;;;21.10;;
63193;SDS011;49289;51.670;5.624;2023-11-21T05:36:29;36.20;;;21.00;;
63193;SDS011;49289;51.670;5.624;2023-11-21T05:38:16;35.10;;;20.70;;
63193;SDS011;49289;51.670;5.624;2023-11-21T05:40:03;36.30;;;20.40;;
63193;SDS011;49289;51.670;5.624;2023-11-21T05:41:51;31.80;;;20.00;;
63193;SDS011;49289;51.670;5.624;2023-11-21T05:43:38;33.80;;;20.50;;
63193;SDS011;49289;51.670;5.624;2023-11-21T05:45:25;32.90;;;20.10;;
63193;SDS011;49289;51.670;5.624;2023-11-21T05:47:12;30.50;;;19.80;;
63193;SDS011;49289;51.670;5.624;2023-11-21T05:48:59;32.50;;;20.20;;
63193;SDS011;49289;51.670;5.624;2023-11-21T05:50:46;29.60;;;20.10;;
63193;SDS011;49289;51.670;5.624;2023-11-21T05:52:33;32.40;;;21.30;;
63193;SDS011;49289;51.670;5.624;2023-11-21T05:54:21;30.10;;;20.50;;
63193;SDS011;49289;51.670;5.624;2023-11-21T05:56:08;27.20;;;19.10;;
63193;SDS011;49289;51.670;5.624;2023-11-21T05:57:55;27.70;;;19.20;;
63193;SDS011;49289;51.670;5.624;2023-11-21T05:59:42;27.60;;;19.20;;
63193;SDS011;49289;51.670;5.624;2023-11-21T06:01:29;27.10;;;19.20;;
63193;SDS011;49289;51.670;5.624;2023-11-21T06:03:16;28.20;;;19.60;;
63193;SDS011;49289;51.670;5.624;2023-11-21T06:05:03;32.60;;;20.80;;
63193;SDS011;49289;51.670;5.624;2023-11-21T06:06:51;35.20;;;22.20;;
63193;SDS011;49289;51.670;5.624;2023-11-21T06:08:38;32.20;;;20.80;;
63193;SDS011;49289;51.670;5.624;2023-11-21T06:10:25;28.60;;;20.60;;
63193;SDS011;49289;51.670;5.624;2023-11-21T06:12:12;29.70;;;19.90;;
63193;SDS011;49289;51.670;5.624;2023-11-21T06:13:59;32.30;;;20.50;;
63193;SDS011;49289;51.670;5.624;2023-11-21T06:15:46;33.70;;;21.90;;
63193;SDS011;49289;51.670;5.624;2023-11-21T06:17:34;34.00;;;21.40;;
63193;SDS011;49289;51.670;5.624;2023-11-21T06:19:20;35.10;;;22.40;;
63193;SDS011;49289;51.670;5.624;2023-11-21T06:21:08;42.50;;;23.60;;
63193;SDS011;49289;51.670;5.624;2023-11-21T06:22:54;34.80;;;22.80;;
63193;SDS011;49289;51.670;5.624;2023-11-21T06:24:41;50.20;;;26.50;;
63193;SDS011;49289;51.670;5.624;2023-11-21T06:26:28;50.10;;;25.80;;
63193;SDS011;49289;51.670;5.624;2023-11-21T06:28:15;49.10;;;26.00;;
63193;SDS011;49289;51.670;5.624;2023-11-21T06:30:02;49.90;;;26.30;;
63193;SDS011;49289;51.670;5.624;2023-11-21T06:31:50;40.30;;;24.20;;
63193;SDS011;49289;51.670;5.624;2023-11-21T06:33:37;37.80;;;23.30;;
63193;SDS011;49289;51.670;5.624;2023-11-21T06:35:24;48.90;;;26.00;;
63193;SDS011;49289;51.670;5.624;2023-11-21T06:37:11;42.10;;;24.40;;
63193;SDS011;49289;51.670;5.624;2023-11-21T06:38:58;45.90;;;24.50;;
63193;SDS011;49289;51.670;5.624;2023-11-21T06:40:45;48.50;;;26.40;;
63193;SDS011;49289;51.670;5.624;2023-11-21T06:42:32;55.30;;;28.20;;
63193;SDS011;49289;51.670;5.624;2023-11-21T06:44:19;48.70;;;25.40;;
63193;SDS011;49289;51.670;5.624;2023-11-21T06:46:06;45.40;;;25.10;;
63193;SDS011;49289;51.670;5.624;2023-11-21T06:47:53;56.90;;;27.20;;
63193;SDS011;49289;51.670;5.624;2023-11-21T06:49:40;59.90;;;26.70;;
63193;SDS011;49289;51.670;5.624;2023-11-21T06:51:27;52.10;;;25.60;;
63193;SDS011;49289;51.670;5.624;2023-11-21T06:53:14;49.50;;;25.00;;
63193;SDS011;49289;51.670;5.624;2023-11-21T06:55:01;50.50;;;26.00;;
63193;SDS011;49289;51.670;5.624;2023-11-21T06:56:49;53.80;;;27.10;;
63193;SDS011;49289;51.670;5.624;2023-11-21T06:58:36;57.60;;;28.10;;
63193;SDS011;49289;51.670;5.624;2023-11-21T07:00:23;53.40;;;26.10;;
63193;SDS011;49289;51.670;5.624;2023-11-21T07:02:10;51.80;;;25.90;;
63193;SDS011;49289;51.670;5.624;2023-11-21T07:03:57;63.30;;;27.30;;
63193;SDS011;49289;51.670;5.624;2023-11-21T07:05:44;59.50;;;27.00;;
63193;SDS011;49289;51.670;5.624;2023-11-21T07:07:31;65.00;;;26.90;;
63193;SDS011;49289;51.670;5.624;2023-11-21T07:09:18;52.60;;;27.10;;
63193;SDS011;49289;51.670;5.624;2023-11-21T07:11:05;71.50;;;29.80;;
63193;SDS011;49289;51.670;5.624;2023-11-21T07:12:52;60.90;;;29.50;;
63193;SDS011;49289;51.670;5.624;2023-11-21T07:14:39;66.00;;;29.60;;
63193;SDS011;49289;51.670;5.624;2023-11-21T07:16:26;63.20;;;29.20;;
63193;SDS011;49289;51.670;5.624;2023-11-21T07:18:13;62.10;;;27.80;;
63193;SDS011;49289;51.670;5.624;2023-11-21T07:20:00;51.40;;;26.00;;
63193;SDS011;49289;51.670;5.624;2023-11-21T07:21:47;59.40;;;27.80;;
63193;SDS011;49289;51.670;5.624;2023-11-21T07:23:36;53.60;;;26.80;;
63193;SDS011;49289;51.670;5.624;2023-11-21T07:25:23;64.80;;;27.50;;
63193;SDS011;49289;51.670;5.624;2023-11-21T07:27:10;65.10;;;28.80;;
63193;SDS011;49289;51.670;5.624;2023-11-21T07:28:58;63.10;;;28.90;;
63193;SDS011;49289;51.670;5.624;2023-11-21T07:30:45;65.20;;;29.80;;
63193;SDS011;49289;51.670;5.624;2023-11-21T07:32:32;62.10;;;29.30;;
63193;SDS011;49289;51.670;5.624;2023-11-21T07:34:19;55.70;;;27.80;;
63193;SDS011;49289;51.670;5.624;2023-11-21T07:36:05;85.30;;;31.60;;
63193;SDS011;49289;51.670;5.624;2023-11-21T07:37:53;83.60;;;33.00;;
63193;SDS011;49289;51.670;5.624;2023-11-21T07:39:40;92.80;;;32.90;;
63193;SDS011;49289;51.670;5.624;2023-11-21T07:41:27;71.40;;;30.50;;
63193;SDS011;49289;51.670;5.624;2023-11-21T07:43:14;65.90;;;30.30;;
63193;SDS011;49289;51.670;5.624;2023-11-21T07:45:01;79.20;;;31.50;;
63193;SDS011;49289;51.670;5.624;2023-11-21T07:46:49;57.20;;;28.80;;
63193;SDS011;49289;51.670;5.624;2023-11-21T07:48:36;102.00;;;34.80;;
63193;SDS011;49289;51.670;5.624;2023-11-21T07:50:23;60.70;;;29.50;;
63193;SDS011;49289;51.670;5.624;2023-11-21T07:52:10;72.50;;;31.70;;
63193;SDS011;49289;51.670;5.624;2023-11-21T07:53:57;61.10;;;28.50;;
63193;SDS011;49289;51.670;5.624;2023-11-21T07:55:44;63.50;;;29.40;;
63193;SDS011;49289;51.670;5.624;2023-11-21T07:57:32;89.80;;;31.30;;
63193;SDS011;49289;51.670;5.624;2023-11-21T07:59:19;88.70;;;31.70;;
63193;SDS011;49289;51.670;5.624;2023-11-21T08:01:06;91.90;;;33.00;;
63193;SDS011;49289;51.670;5.624;2023-11-21T08:02:53;83.70;;;31.80;;
63193;SDS011;49289;51.670;5.624;2023-11-21T08:04:40;69.40;;;30.30;;
63193;SDS011;49289;51.670;5.624;2023-11-21T08:06:27;69.50;;;29.80;;
63193;SDS011;49289;51.670;5.624;2023-11-21T08:08:14;66.70;;;29.40;;
63193;SDS011;49289;51.670;5.624;2023-11-21T08:10:01;73.10;;;31.00;;
63193;SDS011;49289;51.670;5.624;2023-11-21T08:11:49;79.60;;;31.00;;
63193;SDS011;49289;51.670;5.624;2023-11-21T08:13:36;74.80;;;29.90;;
63193;SDS011;49289;51.670;5.624;2023-11-21T08:15:23;89.60;;;32.10;;
63193;SDS011;49289;51.670;5.624;2023-11-21T08:17:10;86.20;;;32.30;;
63193;SDS011;49289;51.670;5.624;2023-11-21T08:18:57;88.30;;;32.00;;
63193;SDS011;49289;51.670;5.624;2023-11-21T08:20:44;112.10;;;34.00;;
63193;SDS011;49289;51.670;5.624;2023-11-21T08:22:31;118.50;;;35.40;;
63193;SDS011;49289;51.670;5.624;2023-11-21T08:24:18;99.60;;;33.20;;
63193;SDS011;49289;51.670;5.624;2023-11-21T08:26:05;94.80;;;32.40;;
63193;SDS011;49289;51.670;5.624;2023-11-21T08:27:52;96.30;;;32.90;;
63193;SDS011;49289;51.670;5.624;2023-11-21T08:29:39;68.60;;;30.10;;
63193;SDS011;49289;51.670;5.624;2023-11-21T08:31:29;94.10;;;33.30;;
63193;SDS011;49289;51.670;5.624;2023-11-21T08:33:16;88.00;;;31.10;;
63193;SDS011;49289;51.670;5.624;2023-11-21T08:35:03;98.80;;;32.20;;
63193;SDS011;49289;51.670;5.624;2023-11-21T08:36:50;97.60;;;31.80;;
63193;SDS011;49289;51.670;5.624;2023-11-21T08:38:37;97.30;;;32.90;;
63193;SDS011;49289;51.670;5.624;2023-11-21T08:40:24;111.90;;;33.70;;
63193;SDS011;49289;51.670;5.624;2023-11-21T08:42:11;132.30;;;36.70;;
63193;SDS011;49289;51.670;5.624;2023-11-21T08:43:58;105.80;;;33.10;;
63193;SDS011;49289;51.670;5.624;2023-11-21T08:45:45;73.20;;;29.50;;
63193;SDS011;49289;51.670;5.624;2023-11-21T08:47:32;70.70;;;28.60;;
63193;SDS011;49289;51.670;5.624;2023-11-21T08:49:19;62.30;;;28.20;;
63193;SDS011;49289;51.670;5.624;2023-11-21T08:51:09;80.40;;;30.30;;
63193;SDS011;49289;51.670;5.624;2023-11-21T08:52:53;97.00;;;32.70;;
63193;SDS011;49289;51.670;5.624;2023-11-21T08:54:40;109.10;;;32.80;;
63193;SDS011;49289;51.670;5.624;2023-11-21T08:56:27;120.40;;;35.30;;
63193;SDS011;49289;51.670;5.624;2023-11-21T08:58:14;79.30;;;30.70;;
63193;SDS011;49289;51.670;5.624;2023-11-21T09:00:02;100.10;;;31.10;;
63193;SDS011;49289;51.670;5.624;2023-11-21T09:01:49;90.30;;;30.80;;
63193;SDS011;49289;51.670;5.624;2023-11-21T09:03:36;100.60;;;30.50;;
63193;SDS011;49289;51.670;5.624;2023-11-21T09:05:24;94.70;;;30.80;;
63193;SDS011;49289;51.670;5.624;2023-11-21T09:07:11;103.90;;;33.00;;
63193;SDS011;49289;51.670;5.624;2023-11-21T09:08:58;97.30;;;30.10;;
63193;SDS011;49289;51.670;5.624;2023-11-21T09:10:45;107.30;;;32.70;;
63193;SDS011;49289;51.670;5.624;2023-11-21T09:12:32;120.10;;;33.00;;
63193;SDS011;49289;51.670;5.624;2023-11-21T09:14:19;83.10;;;29.90;;
63193;SDS011;49289;51.670;5.624;2023-11-21T09:16:06;99.00;;;32.10;;
63193;SDS011;49289;51.670;5.624;2023-11-21T09:17:53;107.60;;;33.10;;
63193;SDS011;49289;51.670;5.624;2023-11-21T09:19:40;112.90;;;33.80;;
63193;SDS011;49289;51.670;5.624;2023-11-21T09:21:27;112.70;;;35.50;;
63193;SDS011;49289;51.670;5.624;2023-11-21T09:23:14;114.20;;;35.70;;
63193;SDS011;49289;51.670;5.624;2023-11-21T09:25:01;109.60;;;35.40;;
63193;SDS011;49289;51.670;5.624;2023-11-21T09:26:48;129.90;;;36.10;;
63193;SDS011;49289;51.670;5.624;2023-11-21T09:28:35;115.00;;;35.20;;
63193;SDS011;49289;51.670;5.624;2023-11-21T09:30:22;113.80;;;33.60;;
63193;SDS011;49289;51.670;5.624;2023-11-21T09:32:10;123.90;;;35.70;;
63193;SDS011;49289;51.670;5.624;2023-11-21T09:33:57;127.00;;;35.60;;
63193;SDS011;49289;51.670;5.624;2023-11-21T09:35:44;111.30;;;33.40;;
63193;SDS011;49289;51.670;5.624;2023-11-21T09:37:31;145.80;;;37.00;;
63193;SDS011;49289;51.670;5.624;2023-11-21T09:39:18;110.80;;;34.90;;
63193;SDS011;49289;51.670;5.624;2023-11-21T09:41:05;120.40;;;33.70;;
63193;SDS011;49289;51.670;5.624;2023-11-21T09:42:53;140.00;;;36.20;;
63193;SDS011;49289;51.670;5.624;2023-11-21T09:44:41;146.00;;;37.20;;
63193;SDS011;49289;51.670;5.624;2023-11-21T09:46:29;167.00;;;36.70;;
63193;SDS011;49289;51.670;5.624;2023-11-21T09:48:16;132.00;;;36.20;;
63193;SDS011;49289;51.670;5.624;2023-11-21T09:50:03;156.30;;;37.00;;
63193;SDS011;49289;51.670;5.624;2023-11-21T09:51:51;136.10;;;35.40;;
63193;SDS011;49289;51.670;5.624;2023-11-21T09:53:38;152.40;;;36.70;;
63193;SDS011;49289;51.670;5.624;2023-11-21T09:55:25;140.00;;;36.00;;
63193;SDS011;49289;51.670;5.624;2023-11-21T09:57:12;155.10;;;37.50;;
63193;SDS011;49289;51.670;5.624;2023-11-21T09:58:59;164.10;;;38.20;;
63193;SDS011;49289;51.670;5.624;2023-11-21T10:00:46;135.60;;;35.50;;
63193;SDS011;49289;51.670;5.624;2023-11-21T10:02:33;175.00;;;38.80;;
63193;SDS011;49289;51.670;5.624;2023-11-21T10:04:20;154.30;;;38.00;;
63193;SDS011;49289;51.670;5.624;2023-11-21T10:06:07;139.10;;;35.90;;
63193;SDS011;49289;51.670;5.624;2023-11-21T10:07:54;160.10;;;37.50;;
63193;SDS011;49289;51.670;5.624;2023-11-21T10:09:41;179.70;;;38.80;;
63193;SDS011;49289;51.670;5.624;2023-11-21T10:11:28;154.40;;;38.10;;
63193;SDS011;49289;51.670;5.624;2023-11-21T10:13:15;188.20;;;39.70;;
63193;SDS011;49289;51.670;5.624;2023-11-21T10:15:03;157.20;;;37.40;;
63193;SDS011;49289;51.670;5.624;2023-11-21T10:16:50;169.70;;;38.90;;
63193;SDS011;49289;51.670;5.624;2023-11-21T10:18:37;151.60;;;40.10;;
63193;SDS011;49289;51.670;5.624;2023-11-21T10:20:24;155.50;;;40.10;;
63193;SDS011;49289;51.670;5.624;2023-11-21T10:22:11;119.70;;;36.60;;
63193;SDS011;49289;51.670;5.624;2023-11-21T10:23:59;135.50;;;37.40;;